Time;durP1;ratioP1;P1;durP2;ratioP2;P2;SDS_P1;SDS_P2;PMS_P1;PMS_P2;Temp;Humidity;BMP_temperature;BMP_pressure;BME280_temperature;BME280_humidity;BME280_pressure;Samples;Min_cycle;Max_cycle;Signal;HPM_P1;HPM_P2
2023/08/22 00:02:24;;;;;;;3.10;2.80;;;23.40;99.90;;;;;;5113592;28;20224;-83
2023/08/22 00:04:51;;;;;;;3.78;2.67;;;23.30;99.90;;;;;;5113699;28;20236;-83
2023/08/22 00:07:17;;;;;;;6.80;3.80;;;23.30;99.90;;;;;;5113674;28;20299;-83
2023/08/22 00:09:44;;;;;;;6.27;3.63;;;23.30;99.90;;;;;;5113397;28;20211;-83
2023/08/22 00:12:11;;;;;;;3.45;3.15;;;23.30;99.90;;;;;;5113910;28;20207;-84
2023/08/22 00:14:39;;;;;;;3.20;2.87;;;23.20;99.90;;;;;;5113578;28;20220;-84
2023/08/22 00:17:08;;;;;;;4.45;2.80;;;23.20;99.90;;;;;;5113655;28;20200;-83
2023/08/22 00:19:35;;;;;;;3.07;2.80;;;23.20;99.90;;;;;;5113263;28;20700;-83
2023/08/22 00:22:03;;;;;;;3.95;2.97;;;23.20;99.90;;;;;;5113585;28;20209;-84
2023/08/22 00:24:30;;;;;;;3.20;2.90;;;23.10;99.90;;;;;;5113531;28;20221;-84
2023/08/22 00:26:57;;;;;;;5.77;3.90;;;23.10;99.90;;;;;;5113278;28;20688;-83
2023/08/22 00:29:24;;;;;;;2.57;2.23;;;23.10;99.90;;;;;;5113581;28;20203;-84
2023/08/22 00:31:52;;;;;;;2.80;2.13;;;23.00;99.90;;;;;;5113506;28;20204;-84
2023/08/22 00:34:19;;;;;;;3.53;2.87;;;23.00;99.90;;;;;;5113457;28;20204;-83
2023/08/22 00:36:46;;;;;;;3.93;3.00;;;23.00;99.90;;;;;;5113462;28;20204;-83
2023/08/22 00:39:13;;;;;;;4.13;2.73;;;23.00;99.90;;;;;;5113406;28;20611;-84
2023/08/22 00:41:40;;;;;;;2.83;2.47;;;23.00;99.90;;;;;;5113661;28;20201;-84
2023/08/22 00:44:06;;;;;;;3.08;2.78;;;23.00;99.90;;;;;;5113440;28;20200;-83
2023/08/22 00:46:33;;;;;;;3.10;2.80;;;22.90;99.90;;;;;;5113311;28;20224;-83
2023/08/22 00:49:03;;;;;;;3.37;3.07;;;23.00;99.90;;;;;;5113439;28;20196;-84
2023/08/22 00:51:30;;;;;;;3.80;2.90;;;22.90;99.90;;;;;;5113355;28;20203;-83
2023/08/22 00:53:57;;;;;;;2.83;2.43;;;23.00;99.90;;;;;;5116619;28;20207;-83
2023/08/22 00:56:23;;;;;;;5.63;2.90;;;22.90;99.90;;;;;;5117139;28;20231;-84
2023/08/22 00:58:50;;;;;;;2.90;2.23;;;22.90;99.90;;;;;;5117067;28;20224;-83
2023/08/22 01:01:17;;;;;;;5.47;3.13;;;22.90;99.90;;;;;;5117098;28;20211;-83
2023/08/22 01:03:44;;;;;;;5.87;3.67;;;22.90;99.90;;;;;;5116633;28;20273;-84
2023/08/22 01:06:18;;;;;;;4.10;3.33;;;22.90;99.90;;;;;;5116597;28;20724;-84
2023/08/22 01:08:49;;;;;;;5.90;3.57;;;22.80;99.90;;;;;;5116995;28;20509;-83
2023/08/22 01:11:23;;;;;;;2.97;2.50;;;22.80;99.90;;;;;;5117721;28;20224;-84
2023/08/22 01:13:53;;;;;;;7.07;3.83;;;22.80;99.90;;;;;;5116903;28;20185;-83
2023/08/22 01:16:20;;;;;;;3.53;3.17;;;22.80;99.90;;;;;;5116723;28;20220;-83
2023/08/22 01:18:48;;;;;;;4.20;3.27;;;22.70;99.90;;;;;;5116489;27;20220;-83
2023/08/22 01:21:20;;;;;;;3.70;2.83;;;22.70;99.90;;;;;;5116649;28;20208;-83
2023/08/22 01:23:49;;;;;;;7.10;2.67;;;22.70;99.90;;;;;;5116386;28;20192;-83
2023/08/22 01:26:16;;;;;;;6.27;3.17;;;22.70;99.90;;;;;;5116532;28;20220;-83
2023/08/22 01:28:46;;;;;;;4.23;2.87;;;22.70;99.90;;;;;;5116230;28;20284;-83
2023/08/22 01:31:19;;;;;;;4.53;4.13;;;22.60;99.90;;;;;;5116512;28;20200;-83
2023/08/22 01:33:51;;;;;;;4.53;3.70;;;22.60;99.90;;;;;;5116519;28;20211;-83
2023/08/22 01:36:20;;;;;;;4.63;2.70;;;22.60;99.90;;;;;;5116390;28;20224;-83
2023/08/22 01:38:50;;;;;;;2.40;2.20;;;22.60;99.90;;;;;;5116290;28;20224;-83
2023/08/22 01:41:19;;;;;;;2.80;2.60;;;22.60;99.90;;;;;;5116579;28;20196;-84
2023/08/22 01:43:46;;;;;;;3.30;2.70;;;22.50;99.90;;;;;;5116260;28;20208;-83
2023/08/22 01:46:13;;;;;;;3.30;3.00;;;22.50;99.90;;;;;;5116160;28;20595;-83
2023/08/22 01:48:40;;;;;;;4.20;2.80;;;22.40;99.90;;;;;;5115886;28;20201;-84
2023/08/22 01:51:07;;;;;;;4.10;3.00;;;22.40;99.90;;;;;;5116347;28;20211;-83
2023/08/22 01:53:33;;;;;;;3.67;2.80;;;22.40;99.90;;;;;;5116068;28;20201;-83
2023/08/22 01:56:02;;;;;;;4.43;2.70;;;22.40;99.90;;;;;;5116068;28;20587;-83
2023/08/22 01:58:29;;;;;;;5.67;3.40;;;22.40;99.90;;;;;;5116746;28;20197;-83
2023/08/22 02:00:55;;;;;;;3.40;3.10;;;22.40;99.90;;;;;;5115907;28;20449;-83
2023/08/22 02:03:24;;;;;;;3.70;2.90;;;22.40;99.90;;;;;;5115437;28;20251;-83
2023/08/22 02:05:51;;;;;;;3.43;3.13;;;22.30;99.90;;;;;;5116205;28;20216;-83
2023/08/22 02:08:17;;;;;;;4.03;3.00;;;22.30;99.90;;;;;;5115653;28;20447;-83
2023/08/22 02:10:44;;;;;;;5.33;3.40;;;22.30;99.90;;;;;;5115745;28;20201;-83
2023/08/22 02:13:12;;;;;;;3.47;3.17;;;22.30;99.90;;;;;;5115724;28;20574;-83
2023/08/22 02:15:39;;;;;;;2.70;2.50;;;22.30;99.90;;;;;;5115619;28;20466;-83
2023/08/22 02:18:06;;;;;;;3.20;2.70;;;22.30;99.90;;;;;;5115591;28;20439;-83
2023/08/22 02:20:33;;;;;;;3.63;2.70;;;22.30;99.90;;;;;;5115697;28;20485;-83
2023/08/22 02:23:01;;;;;;;3.70;2.40;;;22.20;99.90;;;;;;5115805;27;20204;-83
2023/08/22 02:25:28;;;;;;;3.70;3.30;;;22.20;99.90;;;;;;5115416;28;20517;-83
2023/08/22 02:27:55;;;;;;;4.07;3.00;;;22.20;99.90;;;;;;5115427;27;20815;-83
2023/08/22 02:30:23;;;;;;;3.27;2.03;;;22.20;99.90;;;;;;5115062;28;21022;-83
2023/08/22 02:32:50;;;;;;;4.07;2.90;;;22.20;99.90;;;;;;5115295;28;20478;-83
2023/08/22 02:35:17;;;;;;;6.23;3.03;;;22.20;99.90;;;;;;5114880;27;20973;-83
2023/08/22 02:37:44;;;;;;;3.27;2.80;;;22.10;99.90;;;;;;5115228;28;20527;-83
2023/08/22 02:40:11;;;;;;;5.57;3.00;;;22.10;99.90;;;;;;5114788;28;20481;-83
2023/08/22 02:42:39;;;;;;;7.30;3.27;;;22.10;99.90;;;;;;5114826;28;20253;-83
2023/08/22 02:45:06;;;;;;;3.00;2.80;;;22.00;99.90;;;;;;5114718;28;20974;-83
2023/08/22 02:47:34;;;;;;;4.53;3.03;;;22.00;99.90;;;;;;5115834;28;20435;-81
2023/08/22 02:50:01;;;;;;;5.07;3.70;;;22.00;99.90;;;;;;5115165;28;20438;-80
2023/08/22 02:52:29;;;;;;;3.07;2.80;;;22.00;99.90;;;;;;5114615;28;20943;-80
2023/08/22 02:54:55;;;;;;;3.10;2.80;;;22.00;99.90;;;;;;5114808;28;20557;-80
2023/08/22 02:57:22;;;;;;;2.90;2.67;;;22.00;99.90;;;;;;5114770;28;20442;-80
2023/08/22 02:59:49;;;;;;;3.50;2.97;;;22.00;99.90;;;;;;5114707;28;20474;-80
2023/08/22 03:02:16;;;;;;;3.90;3.13;;;22.00;99.90;;;;;;5114687;28;20447;-80
2023/08/22 03:04:44;;;;;;;4.43;2.93;;;22.00;99.90;;;;;;5114411;28;20478;-80
2023/08/22 03:07:11;;;;;;;4.23;2.97;;;21.90;99.90;;;;;;5114632;28;20439;-80
2023/08/22 03:09:39;;;;;;;2.57;2.37;;;21.90;99.90;;;;;;5114562;28;20934;-81
2023/08/22 03:12:06;;;;;;;3.70;3.10;;;21.90;99.90;;;;;;5114546;28;20441;-80
2023/08/22 03:14:33;;;;;;;3.17;2.87;;;21.80;99.90;;;;;;5114100;28;20541;-80
2023/08/22 03:17:00;;;;;;;3.60;3.00;;;21.80;99.90;;;;;;5114022;28;20887;-80
2023/08/22 03:19:26;;;;;;;8.03;3.33;;;21.80;99.90;;;;;;5114036;28;20982;-80
2023/08/22 03:21:55;;;;;;;2.97;2.50;;;21.80;99.90;;;;;;5114376;28;20485;-80
2023/08/22 03:24:21;;;;;;;2.33;2.23;;;21.80;99.90;;;;;;5114281;28;20445;-80
2023/08/22 03:26:48;;;;;;;2.60;2.40;;;21.70;99.90;;;;;;5113977;28;20936;-80
2023/08/22 03:29:15;;;;;;;4.13;2.83;;;21.70;99.90;;;;;;5114529;28;20442;-80
2023/08/22 03:31:41;;;;;;;2.63;2.30;;;21.70;99.90;;;;;;5114245;28;20434;-80
2023/08/22 03:34:08;;;;;;;2.50;2.30;;;21.70;99.90;;;;;;5113914;28;20439;-80
2023/08/22 03:36:35;;;;;;;4.07;2.73;;;21.70;99.90;;;;;;5114403;28;20460;-80
2023/08/22 03:39:03;;;;;;;5.63;2.93;;;21.60;99.90;;;;;;5114032;28;20446;-80
2023/08/22 03:41:30;;;;;;;2.60;2.40;;;21.60;99.90;;;;;;5113935;28;20541;-80
2023/08/22 03:43:56;;;;;;;6.40;2.80;;;21.60;99.90;;;;;;5114048;28;20474;-80
2023/08/22 03:46:23;;;;;;;8.83;2.73;;;21.60;99.90;;;;;;5114170;28;20469;-80
2023/08/22 03:48:50;;;;;;;5.90;2.83;;;21.60;99.90;;;;;;5113984;28;20435;-80
2023/08/22 03:51:17;;;;;;;7.33;3.60;;;21.50;99.90;;;;;;5113578;28;20805;-80
2023/08/22 03:53:43;;;;;;;2.73;2.53;;;21.50;99.90;;;;;;5113887;28;20442;-80
2023/08/22 03:56:12;;;;;;;3.00;2.57;;;21.50;99.90;;;;;;5114021;28;20462;-80
2023/08/22 03:58:38;;;;;;;2.73;2.53;;;21.50;99.90;;;;;;5113813;28;20434;-80
2023/08/22 04:01:05;;;;;;;3.07;2.87;;;21.50;99.90;;;;;;5113743;28;20482;-80
2023/08/22 04:03:32;;;;;;;3.00;2.40;;;21.60;99.90;;;;;;5113523;28;20841;-80
2023/08/22 04:06:00;;;;;;;2.60;2.40;;;21.50;99.90;;;;;;5113670;28;20519;-80
2023/08/22 04:08:27;;;;;;;3.20;2.43;;;21.50;99.90;;;;;;5113755;28;20491;-80
2023/08/22 04:10:54;;;;;;;4.70;2.53;;;21.40;99.90;;;;;;5114014;28;20438;-80
2023/08/22 04:13:22;;;;;;;3.10;2.60;;;21.40;99.90;;;;;;5113717;28;20442;-80
2023/08/22 04:15:49;;;;;;;2.90;2.70;;;21.40;99.90;;;;;;5113298;28;20974;-80
2023/08/22 04:18:16;;;;;;;3.03;2.57;;;21.30;99.90;;;;;;5113712;28;20434;-80
2023/08/22 04:20:43;;;;;;;4.10;3.23;;;21.30;99.90;;;;;;5113538;28;20490;-80
2023/08/22 04:23:10;;;;;;;3.10;2.37;;;21.40;99.90;;;;;;5113626;28;20515;-80
2023/08/22 04:25:37;;;;;;;4.97;2.70;;;21.30;99.90;;;;;;5113529;28;20463;-80
2023/08/22 04:28:05;;;;;;;2.67;2.47;;;21.30;99.90;;;;;;5115346;28;20446;-80
2023/08/22 04:30:33;;;;;;;2.93;2.47;;;21.30;99.90;;;;;;5117692;28;20456;-80
2023/08/22 04:32:59;;;;;;;3.93;2.50;;;21.30;99.90;;;;;;5117347;27;20442;-80
2023/08/22 04:35:26;;;;;;;3.20;2.03;;;21.30;99.90;;;;;;5117503;28;20473;-80
2023/08/22 04:37:53;;;;;;;4.27;3.20;;;21.20;99.90;;;;;;5117587;28;20465;-83
2023/08/22 04:40:20;;;;;;;2.60;2.40;;;21.20;99.90;;;;;;5117163;28;21002;-83
2023/08/22 04:42:46;;;;;;;5.23;2.93;;;21.30;99.90;;;;;;5117186;28;20442;-83
2023/08/22 04:45:13;;;;;;;2.40;2.20;;;21.30;99.90;;;;;;5117065;28;20454;-83
2023/08/22 04:47:41;;;;;;;5.13;3.30;;;21.20;99.90;;;;;;5117400;28;20438;-84
2023/08/22 04:50:09;;;;;;;3.07;2.50;;;21.30;99.90;;;;;;5117316;28;20435;-83
2023/08/22 04:52:36;;;;;;;4.20;3.23;;;21.20;99.90;;;;;;5117304;28;20470;-83
2023/08/22 04:55:03;;;;;;;3.40;2.97;;;21.20;99.90;;;;;;5116884;28;20993;-83
2023/08/22 04:57:30;;;;;;;2.47;2.27;;;21.20;99.90;;;;;;5117183;28;20545;-83
2023/08/22 04:59:57;;;;;;;3.80;3.37;;;21.30;99.90;;;;;;5117056;28;20486;-83
2023/08/22 05:02:24;;;;;;;3.30;3.00;;;21.30;99.90;;;;;;5116939;28;20446;-83
2023/08/22 05:04:52;;;;;;;6.13;3.70;;;21.30;99.90;;;;;;5116950;28;20458;-83
2023/08/22 05:07:19;;;;;;;3.03;2.60;;;21.30;99.90;;;;;;5116959;28;20802;-83
2023/08/22 05:09:46;;;;;;;3.30;3.00;;;21.30;99.90;;;;;;5116947;28;20805;-83
2023/08/22 05:12:12;;;;;;;3.70;2.70;;;21.30;99.90;;;;;;5116712;28;20430;-83
2023/08/22 05:14:39;;;;;;;6.63;2.80;;;21.40;99.90;;;;;;5116770;28;20458;-84
2023/08/22 05:17:06;;;;;;;3.10;2.57;;;21.30;99.90;;;;;;5116816;28;20442;-83
2023/08/22 05:19:33;;;;;;;4.20;2.67;;;21.40;99.90;;;;;;5116694;28;20442;-83
2023/08/22 05:22:01;;;;;;;3.20;2.93;;;21.40;99.90;;;;;;5116729;28;20438;-83
2023/08/22 05:24:27;;;;;;;4.53;2.60;;;21.40;99.90;;;;;;5116597;28;20444;-83
2023/08/22 05:26:54;;;;;;;3.30;3.00;;;21.40;99.90;;;;;;5117335;28;20794;-83
2023/08/22 05:29:21;;;;;;;3.40;2.60;;;21.40;99.90;;;;;;5116271;28;20940;-83
2023/08/22 05:31:48;;;;;;;5.90;2.50;;;21.40;99.90;;;;;;5116812;27;20446;-84
2023/08/22 05:34:15;;;;;;;3.17;2.80;;;21.50;99.90;;;;;;5116541;28;20439;-83
2023/08/22 05:36:41;;;;;;;5.20;3.23;;;21.50;99.90;;;;;;5116539;28;20438;-83
2023/08/22 05:39:10;;;;;;;2.80;2.60;;;21.60;99.90;;;;;;5115905;28;20446;-83
2023/08/22 05:41:37;;;;;;;4.77;3.63;;;21.60;99.90;;;;;;5115958;28;20530;-83
2023/08/22 05:44:04;;;;;;;4.37;3.17;;;21.60;99.90;;;;;;5116282;28;20951;-83
2023/08/22 05:46:31;;;;;;;3.37;3.10;;;21.70;99.90;;;;;;5115965;28;20845;-84
2023/08/22 05:48:58;;;;;;;4.50;3.07;;;21.70;99.90;;;;;;5116234;27;20443;-84
2023/08/22 05:51:24;;;;;;;5.37;3.77;;;21.80;99.90;;;;;;5116121;28;20439;-83
2023/08/22 05:53:51;;;;;;;4.03;3.20;;;21.90;99.90;;;;;;5116177;28;20427;-83
2023/08/22 05:56:19;;;;;;;4.20;3.10;;;22.00;99.90;;;;;;5115973;27;20461;-83
2023/08/22 05:58:46;;;;;;;2.90;2.70;;;22.10;99.90;;;;;;5116235;28;20443;-83
2023/08/22 06:01:13;;;;;;;3.00;1.73;;;22.20;99.90;;;;;;5115872;28;20483;-83
2023/08/22 06:03:40;;;;;;;2.30;2.03;;;22.40;99.90;;;;;;5115454;28;20527;-84
2023/08/22 06:06:07;;;;;;;2.10;2.00;;;22.50;99.90;;;;;;5115763;28;20470;-84
2023/08/22 06:08:34;;;;;;;3.83;2.97;;;22.60;99.90;;;;;;5115830;28;20438;-83
2023/08/22 06:11:00;;;;;;;3.57;1.97;;;22.70;99.90;;;;;;5115810;27;20196;-84
2023/08/22 06:13:28;;;;;;;3.97;2.77;;;23.00;99.90;;;;;;5115442;28;20674;-84
2023/08/22 06:15:56;;;;;;;4.05;2.35;;;23.10;99.90;;;;;;5115632;27;20223;-84
2023/08/22 06:18:23;;;;;;;2.10;2.00;;;23.20;99.90;;;;;;5115315;28;20577;-84
2023/08/22 06:20:50;;;;;;;3.23;2.73;;;23.30;99.90;;;;;;5115239;28;20720;-84
2023/08/22 06:23:17;;;;;;;3.88;2.40;;;23.50;99.90;;;;;;5115565;28;20207;-84
2023/08/22 06:25:46;;;;;;;3.28;2.95;;;23.60;99.90;;;;;;5115137;28;20232;-84
2023/08/22 06:28:13;;;;;;;2.47;2.22;;;23.70;99.90;;;;;;5115498;28;20204;-84
2023/08/22 06:30:41;;;;;;;3.03;2.60;;;23.80;99.90;;;;;;5115398;28;20199;-83
2023/08/22 06:33:08;;;;;;;2.38;2.15;;;23.90;99.90;;;;;;5115560;28;20204;-84
2023/08/22 06:35:35;;;;;;;2.70;2.50;;;24.00;99.90;;;;;;5115284;28;20232;-84
2023/08/22 06:38:03;;;;;;;3.58;2.78;;;24.10;99.90;;;;;;5114975;28;20184;-84
2023/08/22 06:40:29;;;;;;;2.08;1.98;;;24.20;99.90;;;;;;5115338;28;20224;-84
2023/08/22 06:42:56;;;;;;;3.97;3.45;;;24.30;99.90;;;;;;5114863;28;20669;-84
2023/08/22 06:45:23;;;;;;;2.38;2.17;;;24.40;99.90;;;;;;5114722;28;20232;-84
2023/08/22 06:47:51;;;;;;;2.97;2.35;;;24.60;99.90;;;;;;5114756;28;20208;-85
2023/08/22 06:50:18;;;;;;;1.60;1.50;;;24.70;99.90;;;;;;5114195;28;20201;-84
2023/08/22 06:52:44;;;;;;;6.35;2.38;;;24.90;99.90;;;;;;5114902;28;20200;-84
2023/08/22 06:55:11;;;;;;;2.20;1.80;;;25.00;99.90;;;;;;5114903;28;20582;-84
2023/08/22 06:57:38;;;;;;;1.65;1.48;;;25.10;99.90;;;;;;5115179;28;20207;-84
2023/08/22 07:00:13;;;;;;;1.80;1.70;;;25.20;99.90;;;;;;5114434;28;20208;-84
2023/08/22 07:02:41;;;;;;;4.40;1.90;;;25.30;99.90;;;;;;5114545;28;20675;-85
2023/08/22 07:05:09;;;;;;;2.75;2.13;;;25.40;99.90;;;;;;5115537;28;20278;-84
2023/08/22 07:07:36;;;;;;;2.10;1.75;;;25.50;99.90;;;;;;5114614;28;20205;-84
2023/08/22 07:10:05;;;;;;;1.70;1.60;;;25.60;99.90;;;;;;5114280;28;20687;-84
2023/08/22 07:12:32;;;;;;;2.97;2.03;;;25.60;99.90;;;;;;5114273;28;20666;-84
2023/08/22 07:14:59;;;;;;;4.78;2.13;;;25.70;99.90;;;;;;5114433;28;20228;-84
2023/08/22 07:17:25;;;;;;;3.75;2.67;;;25.80;99.90;;;;;;5114508;28;20246;-84
2023/08/22 07:19:52;;;;;;;4.05;2.17;;;25.90;99.90;;;;;;5114018;28;20568;-84
2023/08/22 07:22:20;;;;;;;2.38;1.70;;;26.10;99.90;;;;;;5114322;28;20286;-84
2023/08/22 07:24:47;;;;;;;3.42;2.20;;;26.10;99.90;;;;;;5114319;28;20224;-84
2023/08/22 07:27:14;;;;;;;3.70;2.42;;;26.30;99.90;;;;;;5114049;28;20657;-83
2023/08/22 07:29:41;;;;;;;2.38;1.88;;;26.30;99.90;;;;;;5114040;28;20199;-84
2023/08/22 07:32:09;;;;;;;3.20;2.10;;;26.40;99.90;;;;;;5114241;28;20197;-84
2023/08/22 07:34:36;;;;;;;3.17;2.55;;;26.60;99.90;;;;;;5114200;28;20220;-84
2023/08/22 07:37:03;;;;;;;7.18;2.60;;;26.80;99.90;;;;;;5114141;28;20200;-84
2023/08/22 07:39:31;;;;;;;4.15;2.25;;;26.90;99.90;;;;;;5114384;28;20197;-84
2023/08/22 07:41:58;;;;;;;2.70;1.77;;;27.00;99.90;;;;;;5114347;28;20224;-89
2023/08/22 07:44:25;;;;;;;3.22;2.53;;;27.10;99.90;;;;;;5114806;28;20661;-90
2023/08/22 07:46:51;;;;;;;2.83;2.33;;;27.20;99.90;;;;;;5115036;28;20200;-88
2023/08/22 07:49:18;;;;;;;3.95;3.03;;;27.10;99.90;;;;;;5114744;28;20576;-88
2023/08/22 07:51:45;;;;;;;4.03;3.03;;;27.20;99.90;;;;;;5114168;28;20197;-88
2023/08/22 07:54:12;;;;;;;4.38;2.70;;;27.30;99.90;;;;;;5114250;28;20207;-88
2023/08/22 07:56:40;;;;;;;3.28;2.97;;;27.50;99.90;;;;;;5114344;28;20208;-88
2023/08/22 07:59:07;;;;;;;4.30;3.85;;;27.50;99.90;;;;;;5114347;28;20201;-87
2023/08/22 08:01:35;;;;;;;3.67;1.92;;;27.60;99.90;;;;;;5113909;28;20217;-88
2023/08/22 08:04:02;;;;;;;7.85;6.28;;;27.60;99.90;;;;;;5114152;28;20236;-88
2023/08/22 08:06:33;;;;;;;5.38;2.42;;;27.60;99.90;;;;;;5114182;28;20267;-89
2023/08/22 08:09:00;;;;;;;6.43;5.38;;;27.70;99.90;;;;;;5114814;28;20189;-91
2023/08/22 08:11:28;;;;;;;7.68;6.15;;;27.70;99.90;;;;;;5114920;28;20193;-90
2023/08/22 08:13:57;;;;;;;6.15;5.43;;;28.00;99.90;;;;;;5115012;28;20632;-92
2023/08/22 08:16:24;;;;;;;9.02;8.25;;;28.20;99.90;;;;;;5114896;28;20231;-92
2023/08/22 08:18:52;;;;;;;16.42;15.48;;;28.30;99.90;;;;;;5114798;28;20201;-90
2023/08/22 08:21:19;;;;;;;20.95;19.75;;;28.20;99.90;;;;;;5114562;28;20227;-91
2023/08/22 08:23:46;;;;;;;16.83;15.60;;;28.20;99.90;;;;;;5114710;28;20219;-92
2023/08/22 08:26:14;;;;;;;10.45;9.73;;;28.10;99.90;;;;;;5115005;28;20232;-92
2023/08/22 08:28:41;;;;;;;7.03;6.43;;;28.20;99.90;;;;;;5114686;28;20560;-92
2023/08/22 08:31:09;;;;;;;11.73;10.60;;;28.30;99.90;;;;;;5114843;28;20194;-91
2023/08/22 08:33:36;;;;;;;10.27;6.85;;;28.50;99.90;;;;;;5114820;28;20234;-92
2023/08/22 08:36:03;;;;;;;15.82;14.40;;;28.60;99.90;;;;;;5114622;28;20233;-91
2023/08/22 08:38:30;;;;;;;12.52;11.52;;;28.70;99.90;;;;;;5115656;28;20203;-91
2023/08/22 08:40:59;;;;;;;10.65;8.90;;;29.00;99.90;;;;;;5114462;28;20223;-92
2023/08/22 08:43:26;;;;;;;10.20;9.43;;;29.00;99.90;;;;;;5115266;28;20188;-92
2023/08/22 08:45:54;;;;;;;9.93;9.00;;;29.10;99.90;;;;;;5114187;28;20703;-92
2023/08/22 08:48:23;;;;;;;9.05;8.18;;;29.30;99.90;;;;;;5114715;28;20196;-92
2023/08/22 08:50:51;;;;;;;13.43;12.27;;;29.40;99.90;;;;;;5114531;28;20230;-92
2023/08/22 08:53:18;;;;;;;13.55;12.48;;;29.50;99.90;;;;;;5114652;28;20263;-92
2023/08/22 08:55:46;;;;;;;18.20;16.83;;;29.70;99.90;;;;;;5114728;28;20222;-91
2023/08/22 08:58:13;;;;;;;8.55;6.82;;;30.00;99.90;;;;;;5114345;28;20203;-91
2023/08/22 09:00:40;;;;;;;13.43;12.23;;;30.40;99.90;;;;;;5114279;28;20194;-90
2023/08/22 09:03:07;;;;;;;11.35;10.35;;;30.90;99.90;;;;;;5114077;28;20237;-91
2023/08/22 09:05:35;;;;;;;17.33;16.02;;;31.30;99.90;;;;;;5114295;28;20217;-91
2023/08/22 09:08:15;;;;;;;8.35;7.47;;;31.50;99.90;;;;;;5114631;28;20218;-90
2023/08/22 09:10:42;;;;;;;21.13;19.83;;;31.40;99.90;;;;;;5114327;28;20192;-90
2023/08/22 09:13:10;;;;;;;13.43;12.27;;;31.40;99.90;;;;;;5114612;28;20213;-90
2023/08/22 09:15:36;;;;;;;14.98;13.82;;;31.40;99.90;;;;;;5118105;28;20235;-90
2023/08/22 09:18:04;;;;;;;14.52;13.38;;;31.40;99.90;;;;;;5118031;28;20185;-90
2023/08/22 09:20:30;;;;;;;24.42;22.80;;;31.20;99.90;;;;;;5117657;28;20200;-91
2023/08/22 09:22:59;;;;;;;24.60;22.90;;;31.10;99.90;;;;;;5117777;28;20205;-90
2023/08/22 09:25:39;;;;;;;26.92;25.15;;;30.90;99.90;;;;;;5117908;28;20221;-91
2023/08/22 09:28:09;;;;;;;16.23;15.07;;;31.00;99.90;;;;;;5117714;28;20198;-90
2023/08/22 09:30:36;;;;;;;25.38;23.67;;;31.20;99.90;;;;;;5116851;28;20196;-80
2023/08/22 09:33:03;;;;;;;35.10;32.92;;;31.40;99.90;;;;;;5116527;27;20308;-81
2023/08/22 09:35:30;;;;;;;26.67;24.92;;;31.60;99.90;;;;;;5116464;28;20254;-81
2023/08/22 09:38:08;;;;;;;21.80;20.25;;;31.60;99.90;;;;;;5116456;28;20225;-81
2023/08/22 09:40:34;;;;;;;34.25;31.73;;;31.40;99.90;;;;;;5116812;28;20532;-81
2023/08/22 09:43:02;;;;;;;26.58;24.92;;;31.30;99.90;;;;;;5116268;28;20220;-81
2023/08/22 09:45:31;;;;;;;23.05;21.42;;;31.30;99.90;;;;;;5116216;28;20226;-81
2023/08/22 09:47:59;;;;;;;26.30;24.48;;;31.30;99.90;;;;;;5116281;28;20204;-81
2023/08/22 09:50:28;;;;;;;17.45;16.25;;;31.30;99.90;;;;;;5116276;28;20203;-81
2023/08/22 09:52:56;;;;;;;21.30;20.02;;;31.40;99.90;;;;;;5116170;28;20579;-81
2023/08/22 09:55:26;;;;;;;29.27;27.42;;;31.40;99.90;;;;;;5116011;28;20224;-81
2023/08/22 09:57:54;;;;;;;23.75;22.30;;;31.60;99.90;;;;;;5116074;28;20205;-81
2023/08/22 10:00:21;;;;;;;59.88;56.53;;;31.80;99.90;;;;;;5115975;28;20215;-81
2023/08/22 10:02:49;;;;;;;58.00;54.97;;;32.10;99.90;;;;;;5115664;28;20226;-81
2023/08/22 10:05:17;;;;;;;64.13;60.85;;;32.10;99.90;;;;;;5115865;28;20304;-81
2023/08/22 10:07:44;;;;;;;55.78;53.00;;;32.30;99.90;;;;;;5115755;28;20198;-81
2023/08/22 10:10:11;;;;;;;52.80;50.25;;;32.10;99.90;;;;;;5115811;28;20224;-81
2023/08/22 10:12:40;;;;;;;49.10;46.58;;;32.10;99.90;;;;;;5116000;28;20204;-81
2023/08/22 10:15:08;;;;;;;57.38;54.58;;;32.10;99.90;;;;;;5115717;28;20221;-81
2023/08/22 10:17:35;;;;;;;38.90;37.00;;;32.00;99.90;;;;;;5115705;28;20200;-81
2023/08/22 10:20:05;;;;;;;61.08;57.83;;;31.70;99.90;;;;;;5115310;28;20689;-82
2023/08/22 10:22:33;;;;;;;58.65;55.90;;;31.40;99.90;;;;;;5115182;27;20227;-85
2023/08/22 10:25:03;;;;;;;43.90;41.65;;;31.50;99.90;;;;;;5115448;28;20225;-83
2023/08/22 10:27:30;;;;;;;85.97;81.90;;;31.50;99.90;;;;;;5115288;27;20288;-84
2023/08/22 10:30:20;;;;;;;50.25;47.78;;;31.70;99.90;;;;;;5115103;28;20548;-84
2023/08/22 10:33:07;;;;;;;67.68;64.38;;;31.70;99.90;;;;;;5115491;28;20250;-81
2023/08/22 10:35:34;;;;;;;49.85;47.22;;;31.70;99.90;;;;;;5115164;28;20220;-81
2023/08/22 10:38:00;;;;;;;54.05;51.40;;;31.80;99.90;;;;;;5115238;28;20217;-81
2023/08/22 10:40:32;;;;;;;58.45;55.75;;;31.80;99.90;;;;;;5115180;27;20199;-81
2023/08/22 10:43:07;;;;;;;32.25;30.45;;;31.80;99.90;;;;;;5115111;28;20221;-81
2023/08/22 10:45:51;;;;;;;41.35;39.00;;;31.80;99.90;;;;;;5115034;28;20304;-81
2023/08/22 10:48:19;;;;;;;52.20;49.55;;;31.90;99.90;;;;;;5115355;28;20187;-81
2023/08/22 10:50:48;;;;;;;40.15;37.80;;;32.00;99.90;;;;;;5114668;28;20201;-81
2023/08/22 10:53:23;;;;;;;35.90;33.65;;;32.10;99.90;;;;;;5115181;28;20213;-81
2023/08/22 10:55:51;;;;;;;27.95;26.23;;;32.30;99.90;;;;;;5114849;28;20232;-81
2023/08/22 10:58:38;;;;;;;32.65;30.52;;;32.40;99.90;;;;;;5114879;28;20207;-81
2023/08/22 11:01:11;;;;;;;30.27;28.27;;;32.60;99.90;;;;;;5114755;28;20186;-81
2023/08/22 11:03:39;;;;;;;35.28;33.20;;;32.40;99.90;;;;;;5114546;28;20234;-81
2023/08/22 11:06:16;;;;;;;22.23;20.88;;;32.50;99.90;;;;;;5114642;28;20220;-81
2023/08/22 11:08:44;;;;;;;29.20;27.40;;;32.30;99.90;;;;;;5114739;28;20190;-81
2023/08/22 11:11:13;;;;;;;32.33;30.38;;;32.40;99.90;;;;;;5114599;28;20207;-81
2023/08/22 11:13:41;;;;;;;25.45;23.88;;;32.40;99.90;;;;;;5114611;28;20235;-81
2023/08/22 11:16:12;;;;;;;25.77;24.05;;;32.20;99.90;;;;;;5114109;28;20230;-80
2023/08/22 11:18:39;;;;;;;25.52;24.10;;;32.10;99.90;;;;;;5114560;28;20193;-81
2023/08/22 11:21:07;;;;;;;27.40;25.65;;;31.90;99.90;;;;;;5114170;28;20193;-80
2023/08/22 11:23:34;;;;;;;30.88;28.98;;;31.70;99.90;;;;;;5114351;28;20566;-82
2023/08/22 11:26:02;;;;;;;25.08;23.45;;;31.60;99.90;;;;;;5114279;28;20225;-82
2023/08/22 11:28:32;;;;;;;23.40;21.88;;;31.40;99.90;;;;;;5113972;28;20580;-82
2023/08/22 11:31:00;;;;;;;43.17;40.67;;;31.50;99.90;;;;;;5114295;28;20201;-82
2023/08/22 11:33:35;;;;;;;32.97;30.83;;;31.60;99.90;;;;;;5114234;28;20208;-82
2023/08/22 11:36:03;;;;;;;35.03;32.95;;;31.70;99.90;;;;;;5113716;28;20271;-81
2023/08/22 11:38:30;;;;;;;35.42;33.35;;;31.90;99.90;;;;;;5114219;28;20252;-80
2023/08/22 11:40:58;;;;;;;21.00;19.58;;;31.90;99.90;;;;;;5113839;28;20206;-80
2023/08/22 11:43:25;;;;;;;35.80;33.53;;;31.80;99.90;;;;;;5114171;28;20220;-80
2023/08/22 11:45:51;;;;;;;23.33;21.98;;;31.80;99.90;;;;;;5113959;28;20222;-79
2023/08/22 11:48:18;;;;;;;28.20;26.60;;;31.90;99.90;;;;;;5114011;28;20223;-80
2023/08/22 11:50:47;;;;;;;20.92;19.55;;;32.10;99.90;;;;;;5113983;28;20247;-80
2023/08/22 11:53:15;;;;;;;27.73;25.90;;;32.30;99.90;;;;;;5113922;28;20569;-80
2023/08/22 11:55:44;;;;;;;24.67;23.00;;;32.40;99.90;;;;;;5113822;28;20586;-80
2023/08/22 11:58:13;;;;;;;14.02;12.95;;;32.30;99.90;;;;;;5114135;28;20209;-79
2023/08/22 12:00:40;;;;;;;13.85;12.77;;;32.30;99.90;;;;;;5113865;28;20208;-80
2023/08/22 12:03:06;;;;;;;18.27;17.10;;;32.30;99.90;;;;;;5113502;28;20261;-80
2023/08/22 12:05:35;;;;;;;15.15;13.98;;;32.30;99.90;;;;;;5113763;28;20304;-79
2023/08/22 12:08:17;;;;;;;22.30;20.90;;;32.30;99.90;;;;;;5113796;28;20207;-79
2023/08/22 12:10:46;;;;;;;23.27;21.52;;;32.20;99.90;;;;;;5113702;28;20614;-79
2023/08/22 12:13:15;;;;;;;17.92;16.73;;;32.10;99.90;;;;;;5113425;28;20662;-79
2023/08/22 12:15:42;;;;;;;23.38;21.90;;;32.10;99.90;;;;;;5113900;28;20218;-79
2023/08/22 12:18:10;;;;;;;13.60;12.55;;;31.90;99.90;;;;;;5113731;28;20201;-79
2023/08/22 12:20:38;;;;;;;18.27;17.10;;;31.80;99.90;;;;;;5113676;28;20229;-79
2023/08/22 12:23:07;;;;;;;18.45;17.38;;;31.70;99.90;;;;;;5113272;28;20220;-79
2023/08/22 12:25:35;;;;;;;21.30;19.92;;;31.50;99.90;;;;;;5113256;28;20712;-79
2023/08/22 12:28:03;;;;;;;26.35;24.65;;;31.40;99.90;;;;;;5113300;28;20672;-79
2023/08/22 12:30:33;;;;;;;34.00;31.75;;;31.40;99.90;;;;;;5113595;28;20565;-79
2023/08/22 12:32:59;;;;;;;27.77;25.73;;;31.40;99.90;;;;;;5113729;28;20199;-78
2023/08/22 12:35:26;;;;;;;22.60;21.08;;;31.50;99.90;;;;;;5113490;28;20222;-79
2023/08/22 12:37:53;;;;;;;39.92;37.55;;;31.50;99.90;;;;;;5113567;28;20215;-79
2023/08/22 12:40:21;;;;;;;27.08;25.35;;;31.50;99.90;;;;;;5113202;28;20575;-79
2023/08/22 12:42:48;;;;;;;22.73;21.25;;;31.40;99.90;;;;;;5113360;28;20250;-79
2023/08/22 12:45:15;;;;;;;36.88;34.55;;;31.40;99.90;;;;;;5113353;28;20230;-79